ADDS TAF Board (Experimental) INFO Settings
IDs: Format: Expanded Condensed

KLAS - Las Vegas/McCarran I, NV, US

Issued at 0757 UTC 01 Jul 2016
Updated at 0758 UTC 01 Jul 2016
Time0756Z 01/08Z 01/09Z 01/10Z 01/11Z 01/12Z 01/13Z 01/14Z 01/15Z 01/16Z 01/17Z 01/18Z 01/19Z 01/20Z
Type OBS PRVL
  [TEMP]  
PRVL
  [TEMP]  
PRVL PRVL PRVL PRVL PRVL PRVL PRVL PRVL PRVL PRVL PRVL
VIS 10 >6 >6 >6 >6 >6 >6 >6 >6 >6 >6 >6 >6 >6
CIG 110 100
  [80]  
100
  [80]  
100 100 100 -- -- -- -- -- -- -- 100
Cover BKN BKN
  [BKN]  
BKN
  [BKN]  
BKN BKN BKN SCT SCT SCT SCT SCT SCT SCT BKN
FltCat VFR VFR
  [VFR]  
VFR
  [VFR]  
VFR VFR VFR VFR VFR VFR VFR VFR VFR VFR VFR
WX -- VCTS
  [-TSRA]  
VCTS
  [-TSRA]  
VCTS VCTS VCTS -- -- -- -- -- -- -- VCTS
WDir 320 VRB
[VRB]
VRB
[VRB]
VRB VRB VRB 140 140 140 140 140 140 140 170
WSpd 11 6
  [12]  
6
  [12]  
6 6 6 10 10 10 10 10 10 10 10
WGst -- --
  [20]  
--
  [20]  
-- -- -- -- -- -- -- -- -- -- --
R01/19
XWnd 10 3 3 VRB VRB VRB -9 -9 -9 -9 -9 -9 -9 -6
XGst -- 0 0 -- -- -- -- -- -- -- -- -- -- --
HWnd 5 5 5 VRB VRB VRB -4 -4 -4 -4 -4 -4 -4 -8
HGst -- 0 0 -- -- -- -- -- -- -- -- -- -- --
R07/25
XWnd 8 6 6 VRB VRB VRB -8 -8 -8 -8 -8 -8 -8 -10
XGst -- 0 0 -- -- -- -- -- -- -- -- -- -- --
HWnd -7 0 0 VRB VRB VRB 6 6 6 6 6 6 6 2
HGst -- 0 0 -- -- -- -- -- -- -- -- -- -- --

Raw TAF
KLAS 010757Z 0108/0206 VRB06KT P6SM VCTS SCT080 BKN100CB
  TEMPO 0108/0110 VRB12G20KT -TSRA BKN080CB
  FM011300 14010KT P6SM SCT100 SCT250
  FM012000 17010KT P6SM VCTS BKN100CB


Raw METAR
KLAS 010756Z 32011KT 10SM SCT065 BKN110 BKN200 27/14 A2994 RMK AO2 SLP108 LTG DSNT W T02670144 403940117
KLAS 010656Z 01005KT 10SM FEW070 BKN110 BKN200 26/15 A2995 RMK AO2 SLP112 LTG DSNT NW T02610150
KLAS 010556Z 08010KT 10SM FEW070 BKN110 OVC200 26/17 A2994 RMK AO2 SLP109 LTG DSNT NW 60000 T02610167 10311 20256 51020
KLAS 010456Z 04011KT 10SM FEW070 BKN110 OVC200 27/16 A2993 RMK AO2 SLP106 LTG DSNT NW T02720161

METAR Board
Radar Display
Forecast Discussion

TAF Board Legend

Potential Impact
Threat None Slight Moderate High
Visibility (sm) ≥5.1 5.1>X≥3 3>X≥1 <1
Ceiling (100 ft) ≥30.1 30.1>X≥10 10>X≥5 <5
Wind Speed (kt) <10 10≤X<20 20≤X<30 ≥30
Wind Gust (kt) <15 15≤X<25 25≤X<35 ≥35
Weather No Wx Reported VCTS,-TS,-FZRA,SN TS,FZRA +TS,+FZRA,+SN